Time;durP1;ratioP1;P1;durP2;ratioP2;P2;SDS_P1;SDS_P2;PMS_P1;PMS_P2;Temp;Humidity;BMP_temperature;BMP_pressure;BME280_temperature;BME280_humidity;BME280_pressure;Samples;Min_cycle;Max_cycle;Signal;HPM_P1;HPM_P2
2022/08/21 00:02:16;;;;;;;;;;;17.30;99.90;;;;;;5105402;28;19942;-69
2022/08/21 00:04:42;;;;;;;;;;;17.30;99.90;;;;;;5105576;28;19927;-69
2022/08/21 00:07:09;;;;;;;;;;;17.30;99.90;;;;;;5106286;28;19920;-68
2022/08/21 00:09:36;;;;;;;;;;;17.20;99.90;;;;;;5106130;28;19990;-68
2022/08/21 00:12:03;;;;;;;;;;;17.20;99.90;;;;;;5106144;28;19920;-69
2022/08/21 00:14:30;;;;;;;;;;;17.20;99.90;;;;;;5105467;28;19983;-69
2022/08/21 00:16:58;;;;;;;;;;;17.10;99.90;;;;;;5105861;28;20123;-69
2022/08/21 00:19:24;;;;;;;;;;;17.00;99.90;;;;;;5105705;28;19962;-69
2022/08/21 00:21:51;;;;;;;;;;;16.90;99.90;;;;;;5105872;28;19983;-69
2022/08/21 00:24:18;;;;;;;;;;;16.90;99.90;;;;;;5105449;28;19956;-69
2022/08/21 00:26:46;;;;;;;;;;;16.90;99.90;;;;;;5105722;28;19999;-69
2022/08/21 00:29:13;;;;;;;;;;;16.80;99.90;;;;;;5105559;28;19927;-69
2022/08/21 00:31:40;;;;;;;;;;;16.80;99.90;;;;;;5105627;28;19920;-69
2022/08/21 00:34:08;;;;;;;;;;;16.80;99.90;;;;;;5105634;28;19952;-69
2022/08/21 00:36:36;;;;;;;;;;;16.80;99.90;;;;;;5105628;28;19927;-69
2022/08/21 00:39:04;;;;;;;;;;;16.80;99.90;;;;;;5105435;28;19962;-69
2022/08/21 00:41:30;;;;;;;;;;;16.80;99.90;;;;;;5105303;28;20114;-69
2022/08/21 00:43:57;;;;;;;;;;;16.80;99.90;;;;;;5104793;28;19924;-69
2022/08/21 00:46:24;;;;;;;;;;;16.80;99.90;;;;;;5105103;28;20212;-69
2022/08/21 00:48:50;;;;;;;;;;;16.90;99.90;;;;;;5105379;28;19991;-69
2022/08/21 00:51:22;;;;;;;;;;;16.90;99.90;;;;;;5105245;28;19974;-69
2022/08/21 00:53:52;;;;;;;;;;;16.80;99.90;;;;;;5104983;28;19920;-69
2022/08/21 00:56:20;;;;;;;;;;;16.80;99.90;;;;;;5105216;28;19920;-69
2022/08/21 00:58:46;;;;;;;;;;;16.80;99.90;;;;;;5104962;28;19988;-69
2022/08/21 01:01:13;;;;;;;;;;;16.70;99.90;;;;;;5104929;28;19963;-69
2022/08/21 01:03:40;;;;;;;;;;;16.70;99.90;;;;;;5104910;28;19966;-69
2022/08/21 01:06:07;;;;;;;;;;;16.60;99.90;;;;;;5104822;28;19987;-69
2022/08/21 01:08:35;;;;;;;;;;;16.70;99.90;;;;;;5104915;28;20164;-69
2022/08/21 01:11:02;;;;;;;;;;;16.60;99.90;;;;;;5104837;28;20162;-69
2022/08/21 01:13:30;;;;;;;;;;;16.70;99.90;;;;;;5104123;28;19983;-69
2022/08/21 01:15:59;;;;;;;;;;;16.60;99.90;;;;;;5104579;28;20260;-69
2022/08/21 01:18:25;;;;;;;;;;;16.60;99.90;;;;;;5104893;28;19963;-69
2022/08/21 01:21:04;;;;;;;;;;;16.60;99.90;;;;;;5104640;28;19981;-69
2022/08/21 01:23:31;;;;;;;;;;;16.60;99.90;;;;;;5104254;28;19991;-69
2022/08/21 01:25:57;;;;;;;;;;;16.50;99.90;;;;;;5104388;28;19920;-69
2022/08/21 01:28:25;;;;;;;;;;;16.50;99.90;;;;;;5104625;28;19968;-69
2022/08/21 01:30:52;;;;;;;;;;;16.50;99.90;;;;;;5104554;28;19955;-69
2022/08/21 01:33:19;;;;;;;;;;;16.50;99.90;;;;;;5104285;28;20115;-69
2022/08/21 01:35:45;;;;;;;;;;;16.50;99.90;;;;;;5104411;28;20155;-69
2022/08/21 01:38:13;;;;;;;;;;;16.50;99.90;;;;;;5104398;28;19927;-69
2022/08/21 01:40:40;;;;;;;;;;;16.50;99.90;;;;;;5104217;28;19983;-69
2022/08/21 01:43:06;;;;;;;;;;;16.50;99.90;;;;;;5104022;28;19942;-69
2022/08/21 01:45:33;;;;;;;;;;;16.50;99.90;;;;;;5103993;28;19920;-69
2022/08/21 01:48:00;;;;;;;;;;;16.40;99.90;;;;;;5104117;28;20257;-69
2022/08/21 01:50:26;;;;;;;;;;;16.40;99.90;;;;;;5104158;28;19923;-69
2022/08/21 01:52:53;;;;;;;;;;;16.40;99.90;;;;;;5103780;28;19955;-69
2022/08/21 01:55:22;;;;;;;;;;;16.40;99.90;;;;;;5103798;28;19991;-69
2022/08/21 01:57:49;;;;;;;;;;;16.40;99.90;;;;;;5104147;28;20217;-69
2022/08/21 02:00:17;;;;;;;;;;;16.40;99.90;;;;;;5104202;28;19957;-68
2022/08/21 02:02:43;;;;;;;;;;;16.40;99.90;;;;;;5103898;28;19920;-69
2022/08/21 02:05:11;;;;;;;;;;;16.40;99.90;;;;;;5103734;28;19991;-69
2022/08/21 02:07:39;;;;;;;;;;;16.40;99.90;;;;;;5103717;28;20123;-69
2022/08/21 02:10:07;;;;;;;;;;;16.40;99.90;;;;;;5104031;28;19927;-69
2022/08/21 02:12:34;;;;;;;;;;;16.40;99.90;;;;;;5103656;28;19920;-69
2022/08/21 02:15:02;;;;;;;;;;;16.40;99.90;;;;;;5103977;28;19991;-69
2022/08/21 02:17:37;;;;;;;;;;;16.40;99.90;;;;;;5103653;28;19920;-69
2022/08/21 02:20:04;;;;;;;;;;;16.40;99.90;;;;;;5103680;28;19951;-69
2022/08/21 02:22:30;;;;;;;;;;;16.40;99.90;;;;;;5103298;28;20223;-69
2022/08/21 02:24:57;;;;;;;;;;;16.40;99.90;;;;;;5102447;28;19987;-69
2022/08/21 02:27:24;;;;;;;;;;;16.30;99.90;;;;;;5103645;28;19986;-69
2022/08/21 02:29:52;;;;;;;;;;;16.30;99.90;;;;;;5103549;28;19958;-69
2022/08/21 02:32:19;;;;;;;;;;;16.30;99.90;;;;;;5103551;28;19935;-69
2022/08/21 02:34:46;;;;;;;;;;;16.30;99.90;;;;;;5103152;28;19920;-69
2022/08/21 02:37:12;;;;;;;;;;;16.30;99.90;;;;;;5103716;28;19983;-69
2022/08/21 02:39:39;;;;;;;;;;;16.30;99.90;;;;;;5103374;28;20266;-69
2022/08/21 02:42:06;;;;;;;;;;;16.30;99.90;;;;;;5103558;28;19982;-69
2022/08/21 02:44:33;;;;;;;;;;;16.20;99.90;;;;;;5103007;28;19921;-69
2022/08/21 02:47:01;;;;;;;;;;;16.20;99.90;;;;;;5103741;28;19942;-69
2022/08/21 02:49:27;;;;;;;;;;;16.20;99.90;;;;;;5103139;28;19920;-69
2022/08/21 02:51:54;;;;;;;;;;;16.20;99.90;;;;;;5103531;28;19943;-69
2022/08/21 02:54:20;;;;;;;;;;;16.20;99.90;;;;;;5103194;28;19920;-69
2022/08/21 02:56:47;;;;;;;;;;;16.20;99.90;;;;;;5103351;28;20172;-69
2022/08/21 02:59:14;;;;;;;;;;;16.20;99.90;;;;;;5103205;28;20235;-69
2022/08/21 03:01:40;;;;;;;;;;;16.20;99.90;;;;;;5103254;28;19920;-69
2022/08/21 03:04:08;;;;;;;;;;;16.20;99.90;;;;;;5102841;28;19958;-69
2022/08/21 03:06:35;;;;;;;;;;;16.10;99.90;;;;;;5103276;28;19987;-69
2022/08/21 03:09:02;;;;;;;;;;;16.10;99.90;;;;;;5103372;28;19920;-69
2022/08/21 03:11:28;;;;;;;;;;;16.10;99.90;;;;;;5103220;28;19971;-69
2022/08/21 03:13:55;;;;;;;;;;;16.10;99.90;;;;;;5102815;28;20123;-69
2022/08/21 03:16:22;;;;;;;;;;;16.10;99.90;;;;;;5102871;28;20287;-69
2022/08/21 03:18:48;;;;;;;;;;;16.00;99.90;;;;;;5103252;28;19947;-69
2022/08/21 03:21:18;;;;;;;;;;;16.00;99.90;;;;;;5103034;28;19958;-69
2022/08/21 03:23:45;;;;;;;;;;;16.00;99.90;;;;;;5102881;28;19920;-69
2022/08/21 03:26:12;;;;;;;;;;;16.00;99.90;;;;;;5102891;28;19920;-69
2022/08/21 03:28:38;;;;;;;;;;;16.00;99.90;;;;;;5102868;28;19927;-69
2022/08/21 03:31:05;;;;;;;;;;;15.90;99.90;;;;;;5102883;28;19927;-69
2022/08/21 03:33:32;;;;;;;;;;;15.90;99.90;;;;;;5102530;28;20222;-69
2022/08/21 03:36:00;;;;;;;;;;;15.90;99.90;;;;;;5105986;28;19986;-69
2022/08/21 03:38:30;;;;;;;;;;;15.90;99.90;;;;;;5106824;28;19920;-69
2022/08/21 03:40:57;;;;;;;;;;;15.90;99.90;;;;;;5106500;28;20211;-69
2022/08/21 03:43:23;;;;;;;;;;;15.80;99.90;;;;;;5106141;28;19947;-69
2022/08/21 03:45:50;;;;;;;;;;;15.80;99.90;;;;;;5106238;28;19988;-69
2022/08/21 03:48:24;;;;;;;;;;;15.80;99.90;;;;;;5106462;28;20127;-69
2022/08/21 03:57:40;;;;;;;;;;;15.80;99.90;;;;;;5106405;28;19923;-69
2022/08/21 04:00:11;;;;;;;;;;;15.80;99.90;;;;;;5098090;28;19979;-69
2022/08/21 04:02:38;;;;;;;;;;;15.70;99.90;;;;;;5105937;28;20280;-69
2022/08/21 04:05:07;;;;;;;;;;;15.70;99.90;;;;;;5105954;28;19979;-69
2022/08/21 04:07:34;;;;;;;;;;;15.70;99.90;;;;;;5106158;28;19955;-69
2022/08/21 04:10:01;;;;;;;;;;;15.70;99.90;;;;;;5105935;28;20117;-69
2022/08/21 04:12:27;;;;;;;;;;;15.60;99.90;;;;;;5105910;28;19988;-69
2022/08/21 04:14:54;;;;;;;;;;;15.60;99.90;;;;;;5105552;28;19920;-69
2022/08/21 04:17:23;;;;;;;;;;;15.60;99.90;;;;;;5106028;28;19979;-69
2022/08/21 04:19:49;;;;;;;;;;;15.50;99.90;;;;;;5106025;28;19974;-69
2022/08/21 04:22:16;;;;;;;;;;;15.50;99.90;;;;;;5105895;28;19920;-69
2022/08/21 04:24:43;;;;;;;;;;;15.40;99.90;;;;;;5105475;28;19988;-69
2022/08/21 04:27:11;;;;;;;;;;;15.40;99.90;;;;;;5105582;28;19974;-69
2022/08/21 04:29:44;;;;;;;;;;;15.30;99.90;;;;;;5105878;28;20092;-69
2022/08/21 04:32:10;;;;;;;;;;;15.20;99.90;;;;;;5105683;28;19920;-69
2022/08/21 04:34:39;;;;;;;;;;;15.20;99.90;;;;;;5105396;28;19966;-69
2022/08/21 04:39:57;;;;;;;;;;;15.20;99.90;;;;;;5095317;28;19987;-69
2022/08/21 04:42:34;;;;;;;;;;;15.20;99.90;;;;;;5105177;28;19924;-69
2022/08/21 04:45:00;;;;;;;;;;;15.10;99.90;;;;;;5105299;28;20150;-69
2022/08/21 04:50:37;;;;;;;;;;;15.10;99.90;;;;;;5057992;28;19975;-69
2022/08/21 04:53:11;;;;;;;;;;;15.10;99.90;;;;;;5100250;28;19927;-69
2022/08/21 04:56:01;;;;;;;;;;;15.10;99.90;;;;;;5104844;28;19930;-69
2022/08/21 04:58:48;;;;;;;;;;;15.10;99.90;;;;;;5102747;28;19952;-69
2022/08/21 05:01:24;;;;;;;;;;;15.10;99.90;;;;;;5105363;28;19920;-69
2022/08/21 05:03:56;;;;;;;;;;;15.10;99.90;;;;;;5104133;28;19920;-69
2022/08/21 05:06:43;;;;;;;;;;;15.10;99.90;;;;;;5104298;28;19952;-69
2022/08/21 05:09:17;;;;;;;;;;;15.10;99.90;;;;;;5101035;28;19920;-69
2022/08/21 05:11:47;;;;;;;;;;;15.10;99.90;;;;;;5105189;28;19983;-69
2022/08/21 05:17:08;;;;;;;;;;;15.20;99.90;;;;;;5103566;28;19927;-69
2022/08/21 05:19:43;;;;;;;;;;;15.20;99.90;;;;;;5104639;28;19941;-69
2022/08/21 05:22:30;;;;;;;;;;;15.20;99.90;;;;;;5104658;28;19920;-69
2022/08/21 05:25:26;;;;;;;;;;;15.30;99.90;;;;;;5104452;28;19926;-69
2022/08/21 05:28:16;;;;;;;;;;;15.30;99.90;;;;;;5104433;28;19983;-69
2022/08/21 05:31:02;;;;;;;;;;;15.40;99.90;;;;;;5104631;28;19928;-69
2022/08/21 05:33:53;;;;;;;;;;;15.40;99.90;;;;;;5101031;28;20204;-69
2022/08/21 05:36:39;;;;;;;;;;;15.50;99.90;;;;;;5087974;28;19920;-69
2022/08/21 05:39:28;;;;;;;;;;;15.60;99.90;;;;;;5104113;28;19920;-69
2022/08/21 05:48:28;;;;;;;;;;;15.70;99.90;;;;;;5093295;28;20046;-69
2022/08/21 06:16:09;;;;;;;;;;;16.40;99.90;;;;;;4984291;28;19953;-69
2022/08/21 06:19:06;;;;;;;;;;;16.40;99.90;;;;;;5000782;28;19981;-69
2022/08/21 06:25:03;;;;;;;;;;;16.50;99.90;;;;;;4934375;29;20109;-69
2022/08/21 06:36:10;;;;;;;;;;;16.60;99.90;;;;;;5099888;28;19979;-69
2022/08/21 06:38:58;;;;;;;;;;;16.60;99.90;;;;;;5103423;28;19926;-69
2022/08/21 06:41:43;;;;;;;;;;;16.60;99.90;;;;;;5103311;28;19955;-69
2022/08/21 06:44:09;;;;;;;;;;;16.70;99.90;;;;;;5103030;28;19965;-69
2022/08/21 06:46:36;;;;;;;;;;;16.80;99.90;;;;;;5103736;28;20227;-69
2022/08/21 06:49:15;;;;;;;;;;;16.80;99.90;;;;;;5103198;28;19979;-69
2022/08/21 06:51:50;;;;;;;;;;;16.90;99.90;;;;;;5103449;28;19924;-69
2022/08/21 06:54:19;;;;;;;;;;;16.90;99.90;;;;;;5102966;28;19962;-69
2022/08/21 06:56:46;;;;;;;;;;;17.00;99.90;;;;;;5102863;28;19988;-69
2022/08/21 06:59:15;;;;;;;;;;;17.10;99.90;;;;;;5103129;28;19927;-69
2022/08/21 07:01:44;;;;;;;;;;;17.10;99.90;;;;;;5103231;28;19963;-69
2022/08/21 07:04:11;;;;;;;;;;;17.20;99.90;;;;;;5103127;28;19956;-69
2022/08/21 07:06:38;;;;;;;;;;;17.30;99.90;;;;;;5103163;28;19998;-69
2022/08/21 07:09:24;;;;;;;;;;;17.30;99.90;;;;;;5103063;28;19982;-69
2022/08/21 07:11:51;;;;;;;;;;;17.40;99.90;;;;;;5107845;28;19951;-69
2022/08/21 07:14:18;;;;;;;;;;;17.50;99.90;;;;;;5106866;28;19986;-69
2022/08/21 07:16:44;;;;;;;;;;;17.50;99.90;;;;;;5107557;28;19987;-69
2022/08/21 07:19:11;;;;;;;;;;;17.60;99.90;;;;;;5107096;28;20231;-69
2022/08/21 07:21:38;;;;;;;;;;;17.60;99.90;;;;;;5107054;28;19951;-69
2022/08/21 07:24:06;;;;;;;;;;;17.70;99.90;;;;;;5106840;28;19958;-69
2022/08/21 07:26:32;;;;;;;;;;;17.80;99.90;;;;;;5106698;28;20282;-69
2022/08/21 07:28:59;;;;;;;;;;;17.80;99.90;;;;;;5106924;28;19927;-70
2022/08/21 07:31:26;;;;;;;;;;;17.90;99.90;;;;;;5106951;28;19987;-69
2022/08/21 07:33:53;;;;;;;;;;;17.90;99.90;;;;;;5106385;28;19987;-69
2022/08/21 07:36:20;;;;;;;;;;;18.00;99.90;;;;;;5106699;28;19920;-69
2022/08/21 07:38:46;;;;;;;;;;;18.00;99.90;;;;;;5106644;28;19987;-69
2022/08/21 07:41:16;;;;;;;;;;;18.10;99.90;;;;;;5106786;28;20022;-69
2022/08/21 07:43:43;;;;;;;;;;;18.20;99.90;;;;;;5106274;28;19924;-69
2022/08/21 07:46:10;;;;;;;;;;;18.30;99.90;;;;;;5106578;28;19927;-70
2022/08/21 07:48:36;;;;;;;;;;;18.40;99.90;;;;;;5106646;28;19926;-69
2022/08/21 07:51:05;;;;;;;;;;;18.50;99.90;;;;;;5106430;28;19987;-69
2022/08/21 07:53:31;;;;;;;;;;;18.60;99.90;;;;;;5105847;28;20227;-69
2022/08/21 07:55:58;;;;;;;;;;;18.70;99.90;;;;;;5106240;28;19951;-69
2022/08/21 07:58:26;;;;;;;;;;;18.80;99.90;;;;;;5106469;28;19999;-69
2022/08/21 08:00:53;;;;;;;;;;;18.90;99.90;;;;;;5106239;28;20215;-69
2022/08/21 08:03:19;;;;;;;;;;;19.00;99.90;;;;;;5106034;28;20255;-69
2022/08/21 08:05:46;;;;;;;;;;;19.00;99.90;;;;;;5106013;28;19920;-69
2022/08/21 08:08:13;;;;;;;;;;;19.10;99.90;;;;;;5106050;28;19951;-69
2022/08/21 08:10:39;;;;;;;;;;;19.30;99.90;;;;;;5106293;28;19982;-69
2022/08/21 08:13:06;;;;;;;;;;;19.30;99.90;;;;;;5105666;28;20195;-69
2022/08/21 08:15:34;;;;;;;;;;;19.40;99.90;;;;;;5105985;28;19959;-69
2022/08/21 08:18:01;;;;;;;;;;;19.50;99.90;;;;;;5106069;28;19952;-69
2022/08/21 08:20:29;;;;;;;;;;;19.50;99.90;;;;;;5105823;28;19927;-70
2022/08/21 08:22:56;;;;;;;;;;;19.60;99.90;;;;;;5104611;28;19965;-69
2022/08/21 08:25:24;;;;;;;;;;;19.70;99.90;;;;;;5105720;28;19920;-70
2022/08/21 08:27:50;;;;;;;;;;;19.70;99.90;;;;;;5105774;28;19991;-69
2022/08/21 08:30:18;;;;;;;;;;;19.70;99.90;;;;;;5105815;28;19987;-69
2022/08/21 08:32:46;;;;;;;;;;;19.80;99.90;;;;;;5105518;28;19988;-70
2022/08/21 08:35:13;;;;;;;;;;;19.80;99.90;;;;;;5105420;28;19980;-70
2022/08/21 08:37:41;;;;;;;;;;;19.90;99.90;;;;;;5105705;28;19981;-69
2022/08/21 08:40:11;;;;;;;;;;;19.90;99.90;;;;;;5105620;28;19920;-69
2022/08/21 08:42:37;;;;;;;;;;;19.90;99.90;;;;;;5105361;28;19952;-70
2022/08/21 08:45:06;;;;;;;;;;;20.00;99.90;;;;;;5105037;28;19987;-69
2022/08/21 08:47:35;;;;;;;;;;;20.10;99.90;;;;;;5105187;28;19920;-70
2022/08/21 08:50:05;;;;;;;;;;;20.10;99.90;;;;;;5105158;28;20172;-70
2022/08/21 08:52:33;;;;;;;;;;;20.20;99.90;;;;;;5105205;28;19986;-69
2022/08/21 08:55:02;;;;;;;;;;;20.20;99.90;;;;;;5105010;28;19920;-69
2022/08/21 08:57:30;;;;;;;;;;;20.30;99.90;;;;;;5105183;28;19926;-70
2022/08/21 08:59:57;;;;;;;;;;;20.40;99.90;;;;;;5105187;28;20111;-69
2022/08/21 09:02:24;;;;;;;;;;;20.50;99.90;;;;;;5104665;28;20195;-70
2022/08/21 09:04:52;;;;;;;;;;;20.50;99.90;;;;;;5104875;28;19926;-70
2022/08/21 09:07:23;;;;;;;;;;;20.60;99.90;;;;;;5105123;28;19920;-70
2022/08/21 09:09:55;;;;;;;;;;;20.60;99.90;;;;;;5105061;28;19942;-69
2022/08/21 09:12:30;;;;;;;;;;;20.70;99.90;;;;;;5104886;28;19920;-69
2022/08/21 09:15:01;;;;;;;;;;;20.70;99.90;;;;;;5104451;28;20280;-69
2022/08/21 09:17:35;;;;;;;;;;;20.80;99.90;;;;;;5104762;28;19958;-69
2022/08/21 09:20:09;;;;;;;;;;;21.00;99.90;;;;;;5104710;28;19983;-69
2022/08/21 09:22:39;;;;;;;;;;;21.10;99.90;;;;;;5104551;28;19927;-70
2022/08/21 09:25:09;;;;;;;;;;;21.20;99.90;;;;;;5104362;28;19919;-70
2022/08/21 09:27:36;;;;;;;;;;;21.40;99.90;;;;;;5104438;28;19942;-69
2022/08/21 09:30:04;;;;;;;;;;;21.60;99.90;;;;;;5104502;28;19955;-70
2022/08/21 09:32:32;;;;;;;;;;;21.60;99.90;;;;;;5104017;28;19994;-70
2022/08/21 09:35:00;;;;;;;;;;;21.60;99.90;;;;;;5104201;28;19981;-70
2022/08/21 09:37:28;;;;;;;;;;;21.70;99.90;;;;;;5104347;28;19920;-70
2022/08/21 09:39:57;;;;;;;;;;;21.80;99.90;;;;;;5104732;28;20203;-70
2022/08/21 09:42:25;;;;;;;;;;;21.90;99.90;;;;;;5104255;28;20146;-69
2022/08/21 09:45:05;;;;;;;;;;;21.90;99.90;;;;;;5103922;28;19920;-70
2022/08/21 09:47:32;;;;;;;;;;;22.00;99.90;;;;;;5103984;28;19959;-70
2022/08/21 09:50:08;;;;;;;;;;;22.20;99.90;;;;;;5104258;28;19966;-69
2022/08/21 09:52:35;;;;;;;;;;;22.20;99.90;;;;;;5103892;28;19999;-70
2022/08/21 09:57:37;;;;;;;;;;;22.30;99.90;;;;;;5104063;28;19951;-70
2022/08/21 09:57:49;;;;;;;;;;;22.40;99.90;;;;;;5103861;28;19965;-70
2022/08/21 10:00:19;;;;;;;;;;;22.50;99.90;;;;;;5104038;28;19920;-70
2022/08/21 10:02:45;;;;;;;;;;;22.60;99.90;;;;;;5103514;28;19983;-69
2022/08/21 10:05:16;;;;;;;;;;;22.60;99.90;;;;;;5103699;28;20275;-70
2022/08/21 10:07:43;;;;;;;;;;;22.60;99.90;;;;;;5104066;28;19963;-69
2022/08/21 10:10:16;;;;;;;;;;;22.70;99.90;;;;;;5104056;28;20147;-70
2022/08/21 10:12:48;;;;;;;;;;;22.90;99.90;;;;;;5103638;28;19928;-70
2022/08/21 10:15:20;;;;;;;;;;;23.00;99.90;;;;;;5103488;28;20223;-70
2022/08/21 10:17:52;;;;;;;;;;;23.20;99.90;;;;;;5103742;28;19920;-68
2022/08/21 10:20:22;;;;;;;;;;;23.30;99.90;;;;;;5103803;28;19963;-68
2022/08/21 10:22:55;;;;;;;;;;;23.50;99.90;;;;;;5103463;28;20171;-68
2022/08/21 10:25:26;;;;;;;;;;;23.50;99.90;;;;;;5103666;28;19983;-68
2022/08/21 10:27:57;;;;;;;;;;;23.40;99.90;;;;;;5103333;28;19970;-68
2022/08/21 10:30:31;;;;;;;;;;;23.30;99.90;;;;;;5103666;28;20254;-70
2022/08/21 10:33:12;;;;;;;;;;;23.30;99.90;;;;;;5103199;28;20179;-69
2022/08/21 10:35:43;;;;;;;;;;;23.40;99.90;;;;;;5103409;28;19983;-70
2022/08/21 10:38:26;;;;;;;;;;;23.50;99.90;;;;;;5103269;28;20257;-70
2022/08/21 10:40:57;;;;;;;;;;;23.70;99.90;;;;;;5102577;28;19926;-70
2022/08/21 10:43:29;;;;;;;;;;;23.80;99.90;;;;;;5103182;28;19983;-70
2022/08/21 10:45:58;;;;;;;;;;;24.00;99.90;;;;;;5129095;22;19919;-72
2022/08/21 10:48:28;;;;;;;;;;;24.20;99.90;;;;;;5107570;28;19983;-72
2022/08/21 10:50:59;;;;;;;;;;;24.30;99.90;;;;;;5107680;28;19927;-72
2022/08/21 10:53:33;;;;;;;;;;;24.30;99.90;;;;;;5107771;28;19987;-74
2022/08/21 10:56:03;;;;;;;;;;;24.20;99.90;;;;;;5107308;28;20173;-74
2022/08/21 10:58:34;;;;;;;;;;;24.10;99.90;;;;;;5107463;28;20210;-72
2022/08/21 11:01:04;;;;;;;;;;;23.90;99.90;;;;;;5107380;28;20286;-73
2022/08/21 11:03:34;;;;;;;;;;;23.70;99.90;;;;;;5107540;28;19920;-72
2022/08/21 11:06:02;;;;;;;;;;;23.60;99.90;;;;;;5108771;28;19983;-72
2022/08/21 11:08:32;;;;;;;;;;;23.50;99.90;;;;;;5108382;28;19927;-73
2022/08/21 11:11:00;;;;;;;;;;;23.40;99.90;;;;;;5107426;28;19927;-73
2022/08/21 11:13:32;;;;;;;;;;;23.50;99.90;;;;;;5107975;28;19988;-73
2022/08/21 11:16:03;;;;;;;;;;;23.80;99.90;;;;;;5107647;28;19996;-73
2022/08/21 11:18:32;;;;;;;;;;;24.10;99.90;;;;;;5107372;28;19927;-73
2022/08/21 11:21:03;;;;;;;;;;;24.50;99.90;;;;;;5107057;28;19943;-73
2022/08/21 11:23:34;;;;;;;;;;;24.80;99.90;;;;;;5106666;28;19987;-73
2022/08/21 11:26:02;;;;;;;;;;;25.00;99.90;;;;;;5106642;28;19983;-73
2022/08/21 11:28:32;;;;;;;;;;;25.00;99.90;;;;;;5106694;28;19920;-74
2022/08/21 11:31:02;;;;;;;;;;;24.90;99.90;;;;;;5107036;28;19920;-72
2022/08/21 11:33:36;;;;;;;;;;;24.80;99.90;;;;;;5106741;28;19943;-72
2022/08/21 11:36:09;;;;;;;;;;;24.70;99.90;;;;;;5106733;28;19988;-71
2022/08/21 11:38:40;;;;;;;;;;;24.80;99.90;;;;;;5106704;28;19943;-72
2022/08/21 11:41:12;;;;;;;;;;;25.10;99.90;;;;;;5106435;28;19956;-72
2022/08/21 11:43:43;;;;;;;;;;;25.40;99.90;;;;;;5106569;28;19962;-72
2022/08/21 11:46:14;;;;;;;;;;;25.60;99.90;;;;;;5106402;28;19941;-73
2022/08/21 11:48:46;;;;;;;;;;;25.70;99.90;;;;;;5106423;28;20233;-72
2022/08/21 11:51:14;;;;;;;;;;;25.80;99.90;;;;;;5106373;28;19983;-74
2022/08/21 11:53:50;;;;;;;;;;;26.00;99.90;;;;;;5106024;28;20278;-74
2022/08/21 11:56:19;;;;;;;;;;;26.00;99.90;;;;;;5106155;28;19920;-72
2022/08/21 11:58:49;;;;;;;;;;;25.80;99.90;;;;;;5106101;28;19920;-73
2022/08/21 12:01:18;;;;;;;;;;;25.70;99.90;;;;;;5106226;28;19920;-73
2022/08/21 12:03:52;;;;;;;;;;;25.80;99.90;;;;;;5105856;28;19926;-72
2022/08/21 12:06:28;;;;;;;;;;;25.80;99.90;;;;;;5106310;28;19979;-73
2022/08/21 12:08:58;;;;;;;;;;;25.60;99.90;;;;;;5106176;28;19991;-73
2022/08/21 12:11:26;;;;;;;;;;;25.50;99.90;;;;;;5106085;28;19920;-73
2022/08/21 12:13:56;;;;;;;;;;;25.60;99.90;;;;;;5105546;28;19920;-73
2022/08/21 12:16:30;;;;;;;;;;;25.80;99.90;;;;;;5106355;28;19926;-74
2022/08/21 12:19:03;;;;;;;;;;;26.10;99.90;;;;;;5106260;28;19920;-72
2022/08/21 12:21:31;;;;;;;;;;;26.40;99.90;;;;;;5105306;28;19991;-71
2022/08/21 12:24:02;;;;;;;;;;;26.70;99.90;;;;;;5105364;28;19987;-73
2022/08/21 12:26:30;;;;;;;;;;;27.00;99.90;;;;;;5105532;28;19987;-72
2022/08/21 12:29:16;;;;;;;;;;;27.20;99.90;;;;;;5105891;28;19984;-75
2022/08/21 12:32:00;;;;;;;;;;;27.00;99.90;;;;;;5105847;28;19920;-72
2022/08/21 12:34:32;;;;;;;;;;;26.80;99.90;;;;;;5105208;28;20204;-73
2022/08/21 12:37:00;;;;;;;;;;;26.50;99.90;;;;;;5105580;28;19927;-73
2022/08/21 12:39:29;;;;;;;;;;;26.60;99.90;;;;;;5105641;28;19982;-72
2022/08/21 12:41:59;;;;;;;;;;;26.90;99.90;;;;;;5105225;28;19991;-72
2022/08/21 12:44:28;;;;;;;;;;;27.30;99.90;;;;;;5104869;28;19951;-74
2022/08/21 12:46:57;;;;;;;;;;;27.50;98.60;;;;;;5105350;28;19991;-74
2022/08/21 12:49:26;;;;;;;;;;;27.70;99.90;;;;;;5105151;28;19920;-75
2022/08/21 12:51:55;;;;;;;;;;;28.00;98.70;;;;;;5105457;28;19927;-74
2022/08/21 12:54:26;;;;;;;;;;;28.10;96.60;;;;;;5105105;28;19920;-73
2022/08/21 12:56:57;;;;;;;;;;;28.30;97.10;;;;;;5105205;28;19920;-73
2022/08/21 12:59:23;;;;;;;;;;;28.50;98.00;;;;;;5105091;28;19987;-74
2022/08/21 13:01:54;;;;;;;;;;;28.80;96.20;;;;;;5104892;28;19927;-74
2022/08/21 13:04:23;;;;;;;;;;;28.70;95.50;;;;;;5104853;28;19927;-74
2022/08/21 13:06:52;;;;;;;;;;;28.60;95.90;;;;;;5105164;28;20144;-73
2022/08/21 13:09:21;;;;;;;;;;;28.20;95.00;;;;;;5104481;28;19959;-72
2022/08/21 13:11:49;;;;;;;;;;;28.00;95.60;;;;;;5104841;28;20174;-74
2022/08/21 13:14:20;;;;;;;;;;;28.10;95.30;;;;;;5104519;28;19920;-73
2022/08/21 13:16:46;;;;;;;;;;;28.30;94.70;;;;;;5104719;28;19966;-74
2022/08/21 13:19:18;;;;;;;;;;;28.40;94.40;;;;;;5104775;28;20242;-73
2022/08/21 13:21:45;;;;;;;;;;;28.60;92.90;;;;;;5104024;28;19920;-74
2022/08/21 13:24:14;;;;;;;;;;;28.80;93.30;;;;;;5104250;28;19983;-73
2022/08/21 13:26:41;;;;;;;;;;;28.80;94.60;;;;;;5104411;28;20049;-73
2022/08/21 13:29:10;;;;;;;;;;;28.90;95.30;;;;;;5104211;28;19990;-74
2022/08/21 13:31:38;;;;;;;;;;;29.00;93.30;;;;;;5104465;28;19924;-74
2022/08/21 13:34:08;;;;;;;;;;;29.10;92.70;;;;;;5104094;28;19966;-73
2022/08/21 13:36:37;;;;;;;;;;;28.90;92.00;;;;;;5104408;28;19958;-73
2022/08/21 13:39:04;;;;;;;;;;;28.70;92.00;;;;;;5104239;28;20262;-73
2022/08/21 13:41:33;;;;;;;;;;;28.70;92.10;;;;;;5103563;28;19926;-73
2022/08/21 13:44:01;;;;;;;;;;;28.60;91.00;;;;;;5103980;28;19924;-73
2022/08/21 13:46:29;;;;;;;;;;;28.40;92.60;;;;;;5104458;28;19955;-73
2022/08/21 13:48:57;;;;;;;;;;;28.10;93.20;;;;;;5104179;28;20015;-72
2022/08/21 13:51:24;;;;;;;;;;;27.80;93.40;;;;;;5104143;28;19987;-73
2022/08/21 13:53:53;;;;;;;;;;;27.50;93.00;;;;;;5103646;28;19920;-73
2022/08/21 13:56:23;;;;;;;;;;;27.20;93.50;;;;;;5104022;28;19928;-73
2022/08/21 13:58:49;;;;;;;;;;;27.00;93.70;;;;;;5103948;28;20226;-74
2022/08/21 14:01:20;;;;;;;;;;;26.90;92.80;;;;;;5104389;28;19959;-73
2022/08/21 14:03:48;;;;;;;;;;;27.10;93.40;;;;;;5103679;28;19927;-73
2022/08/21 14:06:16;;;;;;;;;;;27.10;92.40;;;;;;5103758;28;19927;-73
2022/08/21 14:08:42;;;;;;;;;;;27.20;92.50;;;;;;5103649;28;20007;-71
2022/08/21 14:11:13;;;;;;;;;;;27.10;92.90;;;;;;5103899;28;19959;-73
2022/08/21 14:13:42;;;;;;;;;;;27.00;93.50;;;;;;5103728;28;19928;-73
2022/08/21 14:16:17;;;;;;;;;;;26.90;92.80;;;;;;5103705;28;19920;-73
2022/08/21 14:18:45;;;;;;;;;;;26.50;93.10;;;;;;5103426;28;19955;-73
2022/08/21 14:21:13;;;;;;;;;;;26.20;92.90;;;;;;5103458;28;19926;-74
2022/08/21 14:23:39;;;;;;;;;;;26.10;93.30;;;;;;5103520;28;19966;-74
2022/08/21 14:26:07;;;;;;;;;;;26.00;93.50;;;;;;5103526;28;19991;-73
2022/08/21 14:28:38;;;;;;;;;;;25.90;93.90;;;;;;5103824;28;19987;-74
2022/08/21 14:31:13;;;;;;;;;;;25.80;94.00;;;;;;5103827;28;19991;-74
2022/08/21 14:33:39;;;;;;;;;;;25.80;94.00;;;;;;5103297;28;19974;-74
2022/08/21 14:36:06;;;;;;;;;;;26.10;95.00;;;;;;5103418;28;19927;-74
2022/08/21 14:38:36;;;;;;;;;;;26.60;93.70;;;;;;5103705;28;20177;-73
2022/08/21 14:41:05;;;;;;;;;;;27.20;93.80;;;;;;5103227;28;19987;-73
2022/08/21 14:43:33;;;;;;;;;;;27.40;92.40;;;;;;5103167;28;19920;-72
2022/08/21 14:46:01;;;;;;;;;;;27.70;91.90;;;;;;5103170;28;20153;-73
2022/08/21 14:48:27;;;;;;;;;;;27.90;91.50;;;;;;5103507;28;19970;-73
2022/08/21 14:50:54;;;;;;;;;;;28.10;91.40;;;;;;5103577;28;19920;-73
2022/08/21 14:53:21;;;;;;;;;;;28.20;92.00;;;;;;5103264;28;19951;-73
2022/08/21 14:56:06;;;;;;;;;;;28.50;91.60;;;;;;5103385;28;19987;-73
2022/08/21 14:58:33;;;;;;;;;;;28.60;91.00;;;;;;5103253;28;19920;-73
2022/08/21 15:01:03;;;;;;;;;;;28.70;91.00;;;;;;5103293;28;19951;-73
2022/08/21 15:03:30;;;;;;;;;;;28.80;90.60;;;;;;5103192;28;19920;-72
2022/08/21 15:05:57;;;;;;;;;;;28.80;90.40;;;;;;5103348;28;20250;-73
2022/08/21 15:08:24;;;;;;;;;;;28.60;90.20;;;;;;5103380;28;19927;-73
2022/08/21 15:10:52;;;;;;;;;;;28.40;90.80;;;;;;5103193;28;19926;-72
2022/08/21 15:13:18;;;;;;;;;;;28.10;91.00;;;;;;5102778;28;20239;-73
2022/08/21 15:15:47;;;;;;;;;;;27.80;91.40;;;;;;5103294;28;19987;-73
2022/08/21 15:18:15;;;;;;;;;;;27.60;91.70;;;;;;5103227;28;19920;-73
2022/08/21 15:20:42;;;;;;;;;;;27.40;91.90;;;;;;5103018;28;19987;-73
2022/08/21 15:23:09;;;;;;;;;;;27.20;91.70;;;;;;5101984;28;19955;-71
2022/08/21 15:25:36;;;;;;;;;;;27.10;92.20;;;;;;5102807;28;19920;-73
2022/08/21 15:28:03;;;;;;;;;;;27.10;92.90;;;;;;5103168;28;19991;-72
2022/08/21 15:30:31;;;;;;;;;;;27.30;93.00;;;;;;5103532;28;20000;-73